Islamabad Weather



Islamabad's Current Weather

Temprature 12.22o few clouds

few clouds

Rain: 0 %

Min Temprature12.22o
Max Temprature12.22o
Humidity43
Wind Speed0.45 m/h
Sun Rise07:09:15
Sun Set17:28:59
Current Time: 23-Jan-2021 19:07:46
Lat/Lon: 33.7104, 73.1338




Islamabad's Geo Location



Islamabad's Weather Forecast

Time Overall Temp Min Temp Max Temp Humidity Wind Speed Rain
23-Jan-2021 (Sat)
20:00:00 scattered clouds 11.040 9.800 11.040 57 1.16 m/h 0 %
23:00:00 few clouds 9.810 9.140 9.810 54 2.31 m/h 0 %
24-Jan-2021 (Sun)
02:00:00 clear sky 8.690 8.450 8.690 59 2.49 m/h 0 %
05:00:00 clear sky 7.560 7.520 7.560 58 2.1 m/h 0 %
08:00:00 clear sky 8.210 8.210 8.210 54 2.13 m/h 0 %
11:00:00 clear sky 15.560 15.560 15.560 33 1.75 m/h 0 %
14:00:00 clear sky 18.500 18.500 18.500 28 2.89 m/h 0 %
17:00:00 clear sky 15.470 15.470 15.470 34 2.29 m/h 0 %
20:00:00 clear sky 11.940 11.940 11.940 40 3.37 m/h 0 %
23:00:00 clear sky 10.910 10.910 10.910 43 3.26 m/h 0 %
25-Jan-2021 (Mon)
02:00:00 clear sky 10.330 10.330 10.330 44 2.76 m/h 0 %
05:00:00 clear sky 9.220 9.220 9.220 47 2.39 m/h 0 %
08:00:00 clear sky 9.840 9.840 9.840 46 2.44 m/h 0 %
11:00:00 clear sky 17.010 17.010 17.010 29 1.17 m/h 0 %
14:00:00 clear sky 19.270 19.270 19.270 26 2.29 m/h 0 %
17:00:00 clear sky 16.080 16.080 16.080 32 2.05 m/h 0 %
20:00:00 clear sky 12.420 12.420 12.420 38 2.48 m/h 0 %
23:00:00 clear sky 11.190 11.190 11.190 42 2.46 m/h 0 %
26-Jan-2021 (Tue)
02:00:00 clear sky 10.170 10.170 10.170 45 2.32 m/h 0 %
05:00:00 clear sky 9.210 9.210 9.210 47 2.06 m/h 0 %
08:00:00 clear sky 9.800 9.800 9.800 46 2 m/h 0 %
11:00:00 clear sky 16.350 16.350 16.350 30 1.23 m/h 0 %
14:00:00 clear sky 18.560 18.560 18.560 27 1.99 m/h 0 %
17:00:00 clear sky 15.750 15.750 15.750 33 1.95 m/h 0 %
20:00:00 clear sky 12.030 12.030 12.030 40 2.31 m/h 0 %
23:00:00 clear sky 10.820 10.820 10.820 43 2.41 m/h 0 %
27-Jan-2021 (Wed)
02:00:00 clear sky 9.760 9.760 9.760 44 2.35 m/h 0 %
05:00:00 clear sky 8.830 8.830 8.830 46 2.24 m/h 0 %
08:00:00 clear sky 9.390 9.390 9.390 46 2.26 m/h 0 %
11:00:00 few clouds 16.370 16.370 16.370 29 1.39 m/h 0 %
14:00:00 overcast clouds 18.320 18.320 18.320 26 2.3 m/h 0 %
17:00:00 overcast clouds 15.210 15.210 15.210 32 1.96 m/h 0 %
20:00:00 broken clouds 11.510 11.510 11.510 39 2.48 m/h 0 %
23:00:00 scattered clouds 10.180 10.180 10.180 43 2.39 m/h 0 %
28-Jan-2021 (Thu)
02:00:00 clear sky 9.220 9.220 9.220 45 2.27 m/h 0 %
05:00:00 clear sky 8.440 8.440 8.440 47 2.16 m/h 0 %
08:00:00 clear sky 9.100 9.100 9.100 46 2.1 m/h 0 %
11:00:00 clear sky 16.580 16.580 16.580 29 1.45 m/h 0 %
14:00:00 clear sky 18.860 18.860 18.860 25 2.23 m/h 0 %
17:00:00 clear sky 15.870 15.870 15.870 31 2.26 m/h 0 %


Islamabad's Tourist Spots

Historical Places in Islamabad

Famous Cities (60)